Time;durP1;ratioP1;P1;durP2;ratioP2;P2;SDS_P1;SDS_P2;PMS_P1;PMS_P2;Temp;Humidity;BMP_temperature;BMP_pressure;BME280_temperature;BME280_humidity;BME280_pressure;Samples;Min_cycle;Max_cycle;Signal;HPM_P1;HPM_P2
2023/04/03 00:01:14;;;;;;;10.68;3.22;;;11.50;95.60;;;;;;4589556;19;20019;-31
2023/04/03 00:02:46;;;;;;;8.02;2.85;;;11.40;95.50;;;;;;4592162;19;20019;-33
2023/04/03 00:04:17;;;;;;;5.95;2.53;;;11.40;95.60;;;;;;4592739;19;20389;-31
2023/04/03 00:05:49;;;;;;;;;;;11.40;95.70;;;;;;4592788;19;20029;-31
2023/04/03 00:07:20;;;;;;;8.50;3.37;;;11.40;95.80;;;;;;4592866;19;19914;-31
2023/04/03 00:08:52;;;;;;;7.70;2.83;;;11.40;96.00;;;;;;4591072;19;20473;-33
2023/04/03 00:10:23;;;;;;;7.53;3.08;;;11.40;95.70;;;;;;4592696;19;20070;-32
2023/04/03 00:11:55;;;;;;;7.83;3.57;;;11.40;95.70;;;;;;4591008;19;20007;-32
2023/04/03 00:13:26;;;;;;;11.93;4.15;;;11.40;95.70;;;;;;4590129;19;20461;-31
2023/04/03 00:14:57;;;;;;;7.68;3.17;;;11.30;95.70;;;;;;4592916;19;20014;-30
2023/04/03 00:16:30;;;;;;;;;;;11.40;95.70;;;;;;4593190;19;20022;-31
2023/04/03 00:18:01;;;;;;;6.17;2.67;;;11.40;95.80;;;;;;4592069;19;19919;-33
2023/04/03 00:19:35;;;;;;;9.13;3.93;;;11.30;95.70;;;;;;4591873;19;20479;-32
2023/04/03 00:21:06;;;;;;;8.93;3.35;;;11.40;95.80;;;;;;4591325;19;20457;-31
2023/04/03 00:22:38;;;;;;;8.60;3.43;;;11.30;95.90;;;;;;4592254;19;20048;-31
2023/04/03 00:24:09;;;;;;;8.13;3.33;;;11.30;95.80;;;;;;4591115;19;20509;-34
2023/04/03 00:25:41;;;;;;;8.88;3.67;;;11.30;95.80;;;;;;4592974;19;20010;-32
2023/04/03 00:27:12;;;;;;;7.97;2.83;;;11.30;95.80;;;;;;4591891;19;20061;-31
2023/04/03 00:28:43;;;;;;;8.63;3.40;;;11.30;95.80;;;;;;4590355;19;20014;-32
2023/04/03 00:30:16;;;;;;;8.00;2.75;;;11.30;95.70;;;;;;4592984;19;20074;-32
2023/04/03 00:31:47;;;;;;;9.47;2.80;;;11.30;95.80;;;;;;4591035;19;20019;-33
2023/04/03 00:33:22;;;;;;;7.05;2.97;;;11.30;95.80;;;;;;4592040;19;20833;-34
2023/04/03 00:34:54;;;;;;;7.37;2.70;;;11.30;95.80;;;;;;4591479;19;20019;-31
2023/04/03 00:36:26;;;;;;;8.32;2.65;;;11.30;95.80;;;;;;4591705;19;20558;-31
2023/04/03 00:37:57;;;;;;;7.82;3.05;;;11.30;95.90;;;;;;4592054;19;20574;-31
2023/04/03 00:39:29;;;;;;;9.27;2.90;;;11.30;95.80;;;;;;4590397;19;20011;-32
2023/04/03 00:41:01;;;;;;;10.97;3.50;;;11.30;95.90;;;;;;4592273;19;20433;-31
2023/04/03 00:42:33;;;;;;;10.80;3.90;;;11.30;95.90;;;;;;4592138;19;20560;-31
2023/04/03 00:44:33;;;;;;;8.02;2.92;;;11.30;95.90;;;;;;4587762;19;20473;-32
2023/04/03 00:46:04;;;;;;;7.77;2.97;;;11.30;96.00;;;;;;4592752;19;20019;-33
2023/04/03 00:47:35;;;;;;;7.88;2.95;;;11.30;95.90;;;;;;4591729;19;20896;-31
2023/04/03 00:49:06;;;;;;;10.70;3.20;;;11.30;95.90;;;;;;4588277;19;20022;-31
2023/04/03 00:50:39;;;;;;;8.03;3.10;;;11.20;95.90;;;;;;4591236;19;20081;-31
2023/04/03 00:52:16;;;;;;;9.90;2.87;;;11.20;95.90;;;;;;4590340;19;20501;-31
2023/04/03 00:53:50;;;;;;;8.70;3.50;;;11.20;96.00;;;;;;4590775;19;20449;-32
2023/04/03 00:55:22;;;;;;;12.03;4.27;;;11.20;95.90;;;;;;4589004;19;20487;-31
2023/04/03 00:56:54;;;;;;;7.60;3.30;;;11.20;96.00;;;;;;4590476;19;20438;-32
2023/04/03 00:58:43;;;;;;;7.53;3.00;;;11.30;96.00;;;;;;4589204;19;20014;-35
2023/04/03 01:00:16;;;;;;;9.13;3.87;;;11.30;96.00;;;;;;4590180;19;20405;-31
2023/04/03 01:01:48;;;;;;;7.97;3.23;;;11.20;95.90;;;;;;4589654;19;20517;-31
2023/04/03 01:03:20;;;;;;;6.78;3.00;;;11.20;95.90;;;;;;4589092;19;20544;-31
2023/04/03 01:04:51;;;;;;;8.02;3.13;;;11.20;95.90;;;;;;4588927;19;20516;-31
2023/04/03 01:06:32;;;;;;;6.93;2.67;;;11.20;96.20;;;;;;4590812;19;20011;-33
2023/04/03 01:08:05;;;;;;;7.30;3.03;;;11.30;96.00;;;;;;4590964;19;20013;-32
2023/04/03 01:09:36;;;;;;;8.67;2.50;;;11.30;96.00;;;;;;4589046;19;20023;-31
2023/04/03 01:11:08;;;;;;;7.17;2.33;;;11.30;95.90;;;;;;4590780;19;20494;-31
2023/04/03 01:12:42;;;;;;;6.77;3.10;;;11.20;95.80;;;;;;4589574;19;20547;-32
2023/04/03 01:14:13;;;;;;;7.53;2.60;;;11.20;95.90;;;;;;4590806;19;21036;-31
2023/04/03 01:15:44;;;;;;;8.10;2.60;;;11.20;95.80;;;;;;4590218;19;20457;-31
2023/04/03 01:18:00;;;;;;;9.80;3.37;;;11.20;95.80;;;;;;4591005;19;20376;-31
2023/04/03 01:19:34;;;;;;;7.93;3.33;;;11.20;95.80;;;;;;4589034;19;20521;-33
2023/04/03 01:21:35;;;;;;;6.50;2.60;;;11.20;95.70;;;;;;4587900;19;20822;-31
2023/04/03 01:23:13;;;;;;;8.23;2.50;;;11.20;95.80;;;;;;4588764;19;20449;-33
2023/04/03 01:24:46;;;;;;;8.50;2.80;;;11.10;95.70;;;;;;4589580;19;20010;-31
2023/04/03 01:26:17;;;;;;;7.70;3.03;;;11.10;96.00;;;;;;4587819;19;20496;-35
2023/04/03 01:27:48;;;;;;;8.52;3.08;;;11.10;95.80;;;;;;4589553;19;20460;-31
2023/04/03 01:29:20;;;;;;;8.33;2.80;;;11.10;95.80;;;;;;4587551;19;20090;-32
2023/04/03 01:31:13;;;;;;;8.48;2.70;;;11.20;95.80;;;;;;4589323;19;20576;-32
2023/04/03 01:32:44;;;;;;;8.83;3.00;;;11.20;95.80;;;;;;4589227;19;20007;-31
2023/04/03 01:34:16;;;;;;;8.90;3.00;;;11.10;95.70;;;;;;4587635;19;20464;-33
2023/04/03 01:35:47;;;;;;;10.77;2.72;;;11.10;95.80;;;;;;4588994;19;20461;-32
2023/04/03 01:37:18;;;;;;;7.30;2.40;;;11.10;95.70;;;;;;4588525;19;20025;-32
2023/04/03 01:38:50;;;;;;;9.85;3.55;;;11.10;95.80;;;;;;4589150;19;20022;-32
2023/04/03 01:40:23;;;;;;;8.63;2.80;;;11.20;95.80;;;;;;4588304;19;20015;-32
2023/04/03 01:41:54;;;;;;;6.53;2.97;;;11.20;95.80;;;;;;4588374;19;20813;-32
2023/04/03 01:43:27;;;;;;;8.90;2.73;;;11.20;95.70;;;;;;4587774;19;20453;-31
2023/04/03 01:44:58;;;;;;;9.43;3.25;;;11.20;95.70;;;;;;4589187;19;20483;-31
2023/04/03 01:46:29;;;;;;;9.18;2.58;;;11.20;95.70;;;;;;4588187;19;20026;-34
2023/04/03 01:48:01;;;;;;;8.90;2.85;;;11.20;95.70;;;;;;4586847;19;20086;-31
2023/04/03 01:49:33;;;;;;;6.53;2.40;;;11.10;95.60;;;;;;4587634;19;20458;-33
2023/04/03 01:51:05;;;;;;;6.07;2.45;;;11.10;95.60;;;;;;4587633;19;20522;-33
2023/04/03 01:52:36;;;;;;;9.60;3.10;;;11.10;95.70;;;;;;4588880;19;20035;-31
2023/04/03 01:54:08;;;;;;;7.28;2.65;;;11.10;95.70;;;;;;4587783;19;20022;-31
2023/04/03 01:55:39;;;;;;;10.10;2.97;;;11.20;95.70;;;;;;4588832;19;20021;-31
2023/04/03 01:57:10;;;;;;;9.38;2.70;;;11.10;95.60;;;;;;4590537;19;20528;-34
2023/04/03 01:58:41;;;;;;;7.65;2.10;;;11.20;95.60;;;;;;4589195;19;21025;-31
2023/04/03 02:00:13;;;;;;;8.63;3.10;;;11.10;95.60;;;;;;4590191;19;20073;-34
2023/04/03 02:01:46;;;;;;;6.30;2.70;;;11.10;95.60;;;;;;4589708;19;20050;-34
2023/04/03 02:03:18;;;;;;;7.13;2.63;;;11.10;95.50;;;;;;4590873;19;20456;-33
2023/04/03 02:04:50;;;;;;;7.30;2.27;;;11.10;95.50;;;;;;4589295;19;20061;-30
2023/04/03 02:06:22;;;;;;;7.53;2.55;;;11.20;95.50;;;;;;4590294;19;20461;-32
2023/04/03 02:07:53;;;;;;;6.22;2.25;;;11.20;95.50;;;;;;4590923;19;20040;-31
2023/04/03 02:09:24;;;;;;;5.85;2.05;;;11.20;95.40;;;;;;4588014;19;20010;-31
2023/04/03 02:10:57;;;;;;;8.93;2.30;;;11.20;95.50;;;;;;4591319;19;20030;-32
2023/04/03 02:12:28;;;;;;;8.40;2.35;;;11.20;95.40;;;;;;4590769;19;21071;-31
2023/04/03 02:14:00;;;;;;;5.80;2.22;;;11.20;95.40;;;;;;4588278;19;20086;-34
2023/04/03 02:15:32;;;;;;;8.67;2.80;;;11.20;95.50;;;;;;4591065;19;20325;-32
2023/04/03 02:17:08;;;;;;;7.23;2.63;;;11.20;95.40;;;;;;4590084;19;20991;-34
2023/04/03 02:18:39;;;;;;;6.97;3.00;;;11.20;95.30;;;;;;4590588;19;20492;-33
2023/04/03 02:20:11;;;;;;;10.23;3.10;;;11.20;95.30;;;;;;4590025;19;20560;-33
2023/04/03 02:21:43;;;;;;;6.93;2.70;;;11.20;95.30;;;;;;4589582;19;20827;-31
2023/04/03 02:23:16;;;;;;;8.53;3.07;;;11.20;95.40;;;;;;4590766;19;20101;-35
2023/04/03 02:24:48;;;;;;;9.52;3.75;;;11.20;95.30;;;;;;4589134;19;20464;-31
2023/04/03 02:26:20;;;;;;;7.10;2.13;;;11.20;95.20;;;;;;4589697;19;20551;-33
2023/04/03 02:27:53;;;;;;;5.97;2.50;;;11.10;95.20;;;;;;4589086;19;20449;-31
2023/04/03 02:29:25;;;;;;;8.40;2.63;;;11.10;95.20;;;;;;4588229;19;20504;-32
2023/04/03 02:30:56;;;;;;;7.80;2.65;;;11.10;95.20;;;;;;4593235;19;20018;-31
2023/04/03 02:32:27;;;;;;;7.88;2.88;;;11.10;95.20;;;;;;4593296;19;20026;-31
2023/04/03 02:33:59;;;;;;;5.82;2.40;;;11.20;95.20;;;;;;4595079;19;20029;-31
2023/04/03 02:35:30;;;;;;;8.00;2.42;;;11.10;95.10;;;;;;4594773;19;20014;-31
2023/04/03 02:37:01;;;;;;;8.55;2.30;;;11.10;95.00;;;;;;4594863;19;20019;-33
2023/04/03 02:38:33;;;;;;;6.00;2.00;;;11.20;95.00;;;;;;4592647;19;20018;-34
2023/04/03 02:40:06;;;;;;;8.17;2.60;;;11.20;95.10;;;;;;4593937;19;20003;-33
2023/04/03 02:41:37;;;;;;;7.10;2.60;;;11.20;95.10;;;;;;4594094;19;21106;-34
2023/04/03 02:43:09;;;;;;;7.45;2.33;;;11.20;95.00;;;;;;4593977;19;20464;-31
2023/04/03 02:44:42;;;;;;;6.80;2.23;;;11.10;95.00;;;;;;4591985;19;20361;-32
2023/04/03 02:46:15;;;;;;;13.95;3.05;;;11.20;94.90;;;;;;4595596;19;20437;-31
2023/04/03 02:47:46;;;;;;;6.53;2.67;;;11.10;95.00;;;;;;4594456;19;20018;-31
2023/04/03 02:49:19;;;;;;;6.47;2.33;;;11.10;95.00;;;;;;4593702;19;20560;-31
2023/04/03 02:50:51;;;;;;;7.18;2.63;;;11.20;95.10;;;;;;4594153;19;21044;-32
2023/04/03 02:52:23;;;;;;;8.43;3.63;;;11.20;95.00;;;;;;4594882;19;20036;-31
2023/04/03 02:53:54;;;;;;;11.27;3.88;;;11.20;95.00;;;;;;4593678;19;20460;-33
2023/04/03 02:55:26;;;;;;;7.85;3.50;;;11.20;94.90;;;;;;4591591;19;20333;-31
2023/04/03 02:56:57;;;;;;;7.72;3.08;;;11.20;94.90;;;;;;4594391;19;20003;-31
2023/04/03 02:58:30;;;;;;;8.27;3.37;;;11.10;94.80;;;;;;4592658;19;20021;-39
2023/04/03 03:00:01;;;;;;;7.82;3.10;;;11.10;94.60;;;;;;4592537;19;20465;-32
2023/04/03 03:01:32;;;;;;;;;;;11.10;94.60;;;;;;4594832;19;20022;-32
2023/04/03 03:03:04;;;;;;;6.50;2.70;;;11.20;94.80;;;;;;4594726;19;19926;-31
2023/04/03 03:04:36;;;;;;;5.97;2.10;;;11.20;94.60;;;;;;4593477;19;20453;-33
2023/04/03 03:06:10;;;;;;;7.47;1.88;;;11.20;94.60;;;;;;4593031;19;20461;-32
2023/04/03 03:07:41;;;;;;;4.70;1.60;;;11.10;94.50;;;;;;4594551;19;20014;-32
2023/04/03 03:09:13;;;;;;;5.78;1.92;;;11.20;94.40;;;;;;4591581;19;20457;-31
2023/04/03 03:10:45;;;;;;;5.57;2.05;;;11.10;94.30;;;;;;4592507;19;20018;-31
2023/04/03 03:12:21;;;;;;;5.55;1.92;;;11.10;94.30;;;;;;4591996;19;20029;-31
2023/04/03 03:13:53;;;;;;;6.23;1.90;;;11.10;94.20;;;;;;4592348;19;20021;-31
2023/04/03 03:15:25;;;;;;;5.53;2.22;;;11.10;94.10;;;;;;4593205;19;20475;-31
2023/04/03 03:16:56;;;;;;;4.88;1.73;;;11.00;94.10;;;;;;4592441;19;20011;-32
2023/04/03 03:18:27;;;;;;;4.43;1.73;;;11.10;94.10;;;;;;4594365;19;20480;-32
2023/04/03 03:19:59;;;;;;;;;;;11.10;94.10;;;;;;4594340;19;20070;-33
2023/04/03 03:21:30;;;;;;;4.40;2.00;;;11.10;94.30;;;;;;4593671;19;20253;-31
2023/04/03 03:23:01;;;;;;;5.70;1.60;;;11.10;94.00;;;;;;4591155;19;20480;-31
2023/04/03 03:24:32;;;;;;;4.80;1.60;;;11.10;93.90;;;;;;4591751;19;20006;-31
2023/04/03 03:26:05;;;;;;;4.70;1.88;;;11.10;93.80;;;;;;4594148;19;20021;-31
2023/04/03 03:27:36;;;;;;;4.80;1.73;;;11.10;93.80;;;;;;4593350;19;20035;-32
2023/04/03 03:29:08;;;;;;;3.42;1.80;;;11.10;93.90;;;;;;4592625;19;20909;-34
2023/04/03 03:30:40;;;;;;;7.33;2.20;;;11.10;93.70;;;;;;4592580;19;20474;-31
2023/04/03 03:32:13;;;;;;;6.63;2.03;;;11.10;93.80;;;;;;4592007;19;20536;-33
2023/04/03 03:33:44;;;;;;;3.78;1.58;;;11.00;93.70;;;;;;4593784;19;20844;-31
2023/04/03 03:35:16;;;;;;;4.65;1.50;;;11.10;93.80;;;;;;4592698;19;20026;-33
2023/04/03 03:36:48;;;;;;;5.13;1.80;;;11.00;93.70;;;;;;4594101;19;20034;-33
2023/04/03 03:38:20;;;;;;;6.35;1.58;;;11.10;93.70;;;;;;4593523;19;20460;-33
2023/04/03 03:39:51;;;;;;;7.38;2.17;;;11.10;93.60;;;;;;4593491;19;20023;-31
2023/04/03 03:41:22;;;;;;;;;;;11.10;93.60;;;;;;4592516;19;20017;-32
2023/04/03 03:42:54;;;;;;;6.03;1.85;;;11.10;93.80;;;;;;4592071;19;19922;-29
2023/04/03 03:44:28;;;;;;;6.10;2.43;;;11.20;93.70;;;;;;4590894;19;20021;-31
2023/04/03 03:46:00;;;;;;;3.83;1.63;;;11.20;93.60;;;;;;4593250;19;21380;-29
2023/04/03 03:47:32;;;;;;;4.68;1.60;;;11.20;93.60;;;;;;4592515;19;20457;-30
2023/04/03 03:49:05;;;;;;;5.00;1.80;;;11.20;93.50;;;;;;4593115;19;20006;-30
2023/04/03 03:50:37;;;;;;;5.77;1.90;;;11.30;93.50;;;;;;4591075;19;20586;-32
2023/04/03 03:52:10;;;;;;;3.28;1.42;;;11.30;93.30;;;;;;4592400;19;20449;-31
2023/04/03 03:53:41;;;;;;;6.00;2.10;;;11.40;93.30;;;;;;4592918;19;20066;-31
2023/04/03 03:55:12;;;;;;;4.90;1.55;;;11.40;93.20;;;;;;4592162;19;20496;-33
2023/04/03 03:56:44;;;;;;;4.85;1.52;;;11.50;93.10;;;;;;4593303;19;20038;-33
2023/04/03 03:58:15;;;;;;;3.72;1.52;;;11.50;93.00;;;;;;4591909;19;20022;-31
2023/04/03 03:59:48;;;;;;;3.63;1.55;;;11.50;92.90;;;;;;4593343;19;20361;-31
2023/04/03 04:01:20;;;;;;;4.47;1.60;;;11.50;92.70;;;;;;4591432;19;20018;-32
2023/04/03 04:02:51;;;;;;;;;;;11.50;92.70;;;;;;4593245;19;20461;-31
2023/04/03 04:04:22;;;;;;;6.67;2.67;;;11.50;92.90;;;;;;4592836;19;19910;-33
2023/04/03 04:05:54;;;;;;;;;;;11.50;92.70;;;;;;4591940;19;20464;-31
2023/04/03 04:07:27;;;;;;;4.37;1.80;;;11.50;92.80;;;;;;4593078;19;19923;-36
2023/04/03 04:08:59;;;;;;;5.40;1.77;;;11.50;92.60;;;;;;4590874;19;20501;-31
2023/04/03 04:10:30;;;;;;;5.82;2.05;;;11.50;92.60;;;;;;4592860;19;20437;-30
2023/04/03 04:12:01;;;;;;;4.82;1.70;;;11.40;92.40;;;;;;4590829;19;20002;-32
2023/04/03 04:13:34;;;;;;;4.97;1.90;;;11.30;92.50;;;;;;4592323;19;20014;-31
2023/04/03 04:15:06;;;;;;;4.40;1.70;;;11.40;92.80;;;;;;4593269;19;20496;-31
2023/04/03 04:16:37;;;;;;;5.57;2.10;;;11.50;92.70;;;;;;4592425;19;20019;-31
2023/04/03 04:18:09;;;;;;;6.82;2.63;;;11.50;92.70;;;;;;4593202;19;20018;-31
2023/04/03 04:19:40;;;;;;;6.60;2.17;;;11.70;92.70;;;;;;4592042;19;20494;-31
2023/04/03 04:21:14;;;;;;;4.90;2.00;;;11.70;92.40;;;;;;4592478;19;20022;-32
2023/04/03 04:22:45;;;;;;;6.03;2.65;;;11.80;92.40;;;;;;4591713;19;20490;-31
2023/04/03 04:24:16;;;;;;;6.18;2.80;;;11.70;92.20;;;;;;4587909;19;20375;-32
2023/04/03 04:25:48;;;;;;;7.57;2.60;;;11.60;92.10;;;;;;4592668;19;20015;-33
2023/04/03 04:27:20;;;;;;;4.70;1.93;;;11.50;92.00;;;;;;4588480;19;20021;-31
2023/04/03 04:28:51;;;;;;;4.30;2.17;;;11.40;91.90;;;;;;4591843;19;20483;-32
2023/04/03 04:30:22;;;;;;;5.32;2.35;;;11.40;92.00;;;;;;4591910;19;20507;-33
2023/04/03 04:31:53;;;;;;;4.63;2.10;;;11.40;91.90;;;;;;4592123;19;20018;-34
2023/04/03 04:33:25;;;;;;;;;;;11.40;91.90;;;;;;4590396;19;20025;-32
2023/04/03 04:34:56;;;;;;;5.07;2.00;;;11.40;92.20;;;;;;4591076;19;19923;-32
2023/04/03 04:36:27;;;;;;;4.82;1.55;;;11.40;92.00;;;;;;4590606;19;20930;-31
2023/04/03 04:37:59;;;;;;;4.70;1.75;;;11.40;91.90;;;;;;4589194;19;20018;-32
2023/04/03 04:39:31;;;;;;;4.70;1.60;;;11.40;92.10;;;;;;4591191;19;20010;-32
2023/04/03 04:41:02;;;;;;;;;;;11.30;91.90;;;;;;4593128;19;20480;-34
2023/04/03 04:42:34;;;;;;;4.97;1.80;;;11.30;91.90;;;;;;4589831;19;20181;-32
2023/04/03 04:44:05;;;;;;;4.78;1.58;;;11.30;91.90;;;;;;4590746;19;20799;-31
2023/04/03 04:45:36;;;;;;;6.38;1.52;;;11.30;91.90;;;;;;4591363;19;20090;-32
2023/04/03 04:47:08;;;;;;;5.70;1.92;;;11.30;92.00;;;;;;4589341;19;20018;-33
2023/04/03 04:48:41;;;;;;;5.60;1.63;;;11.20;91.80;;;;;;4589164;19;20026;-32
2023/04/03 04:50:12;;;;;;;7.00;1.63;;;11.30;91.80;;;;;;4589550;19;20521;-30
2023/04/03 04:51:44;;;;;;;3.45;1.52;;;11.20;91.90;;;;;;4590970;19;20050;-34
2023/04/03 04:53:15;;;;;;;9.82;2.47;;;11.20;91.90;;;;;;4587197;19;20018;-31
2023/04/03 04:54:46;;;;;;;4.78;1.75;;;11.20;91.80;;;;;;4592166;19;20014;-31
2023/04/03 04:56:18;;;;;;;4.72;1.80;;;11.30;91.80;;;;;;4591312;19;20014;-31
2023/04/03 04:57:49;;;;;;;6.03;2.00;;;11.30;91.80;;;;;;4590864;19;20017;-34
2023/04/03 04:59:21;;;;;;;4.43;1.77;;;11.30;91.60;;;;;;4591403;19;20046;-31
2023/04/03 05:01:03;;;;;;;5.60;1.85;;;11.30;91.80;;;;;;4590199;19;20510;-30
2023/04/03 05:02:34;;;;;;;4.30;1.95;;;11.40;91.90;;;;;;4590544;19;20014;-34
2023/04/03 05:04:06;;;;;;;;;;;11.40;91.70;;;;;;4589816;19;20045;-30
2023/04/03 05:05:38;;;;;;;4.75;1.73;;;11.40;91.80;;;;;;4591635;19;19926;-32
2023/04/03 05:07:09;;;;;;;3.63;1.60;;;11.40;91.60;;;;;;4589538;19;20024;-31
2023/04/03 05:08:40;;;;;;;4.97;1.60;;;11.40;91.50;;;;;;4588627;19;20029;-31
2023/04/03 05:10:12;;;;;;;3.90;1.80;;;11.30;91.40;;;;;;4589018;19;20049;-33
2023/04/03 05:11:43;;;;;;;5.03;1.77;;;11.30;91.40;;;;;;4590589;19;20014;-31
2023/04/03 05:13:14;;;;;;;4.53;2.15;;;11.30;91.40;;;;;;4588595;19;20074;-32
2023/04/03 05:14:46;;;;;;;;;;;11.40;91.40;;;;;;4591064;19;20015;-32
2023/04/03 05:16:17;;;;;;;4.37;1.70;;;11.50;91.70;;;;;;4590393;19;19922;-32
2023/04/03 05:17:48;;;;;;;6.55;2.00;;;11.50;91.50;;;;;;4591823;19;20011;-30
2023/04/03 05:19:20;;;;;;;5.07;1.55;;;11.50;91.20;;;;;;4589977;19;20092;-31
2023/04/03 05:20:52;;;;;;;5.17;2.00;;;11.50;91.30;;;;;;4590336;19;20029;-30
2023/04/03 05:22:23;;;;;;;3.92;1.67;;;11.50;91.30;;;;;;4590227;19;20469;-31
2023/04/03 05:23:54;;;;;;;3.85;1.75;;;11.50;91.30;;;;;;4588700;19;20018;-31
2023/04/03 05:25:26;;;;;;;6.28;1.70;;;11.60;91.20;;;;;;4590578;19;20484;-34
2023/04/03 05:26:57;;;;;;;7.18;2.22;;;11.60;91.20;;;;;;4590746;19;20007;-32
2023/04/03 05:28:28;;;;;;;4.43;2.13;;;11.60;91.10;;;;;;4591662;19;20349;-30
2023/04/03 05:30:00;;;;;;;5.10;1.83;;;11.70;91.00;;;;;;4588931;19;20023;-31
2023/04/03 05:31:31;;;;;;;5.20;1.97;;;11.60;90.90;;;;;;4590513;19;20090;-31
2023/04/03 05:33:03;;;;;;;3.70;1.90;;;11.60;90.70;;;;;;4590454;19;21049;-32
2023/04/03 05:34:35;;;;;;;3.25;1.80;;;11.60;90.60;;;;;;4589579;19;21073;-31
2023/04/03 05:36:06;;;;;;;4.28;1.45;;;11.60;90.60;;;;;;4590337;19;20029;-33
2023/04/03 05:37:38;;;;;;;4.43;1.73;;;11.60;90.70;;;;;;4588957;19;20373;-32
2023/04/03 05:39:09;;;;;;;4.45;2.05;;;11.60;90.80;;;;;;4592062;19;20468;-31
2023/04/03 05:40:40;;;;;;;3.38;2.00;;;11.60;90.60;;;;;;4589813;19;20370;-32
2023/04/03 05:42:12;;;;;;;4.82;1.70;;;11.60;90.70;;;;;;4591342;19;20011;-31
2023/04/03 05:43:43;;;;;;;4.97;2.38;;;11.60;90.90;;;;;;4588266;19;20017;-36
2023/04/03 05:45:14;;;;;;;4.93;1.67;;;11.70;91.00;;;;;;4590004;19;20030;-31
2023/04/03 05:46:45;;;;;;;7.00;2.63;;;11.70;90.80;;;;;;4591192;19;20027;-31
2023/04/03 05:48:17;;;;;;;4.70;1.85;;;11.70;90.40;;;;;;4590133;19;20015;-31
2023/04/03 05:49:48;;;;;;;4.70;1.70;;;11.80;90.60;;;;;;4589838;19;20021;-31
2023/04/03 05:51:25;;;;;;;4.15;1.83;;;11.70;90.30;;;;;;4588872;19;20015;-33
2023/04/03 05:52:58;;;;;;;4.57;1.63;;;11.70;90.20;;;;;;4589371;19;20022;-32
2023/04/03 05:54:30;;;;;;;3.30;1.70;;;11.70;90.20;;;;;;4590510;19;20457;-31
2023/04/03 05:56:01;;;;;;;4.93;1.83;;;11.70;90.30;;;;;;4590327;19;20463;-35
2023/04/03 05:57:32;;;;;;;4.68;2.08;;;11.70;90.40;;;;;;4588657;19;20433;-31
2023/04/03 05:59:04;;;;;;;6.18;2.42;;;11.70;90.50;;;;;;4589851;19;20018;-32
2023/04/03 06:00:35;;;;;;;3.67;1.83;;;11.70;90.50;;;;;;4590255;19;20415;-32
2023/04/03 06:02:07;;;;;;;3.35;1.30;;;11.70;90.30;;;;;;4590504;19;20089;-33
2023/04/03 06:03:39;;;;;;;4.97;1.88;;;11.70;89.60;;;;;;4588978;19;20475;-31
2023/04/03 06:05:12;;;;;;;4.87;2.30;;;11.70;90.10;;;;;;4589798;19;20010;-32
2023/04/03 06:06:47;;;;;;;;;;;11.70;90.20;;;;;;4590188;19;20425;-32
2023/04/03 06:08:18;;;;;;;4.90;1.80;;;11.60;90.20;;;;;;4589759;19;19930;-32
2023/04/03 06:09:51;;;;;;;3.67;1.58;;;11.60;89.80;;;;;;4588881;19;20426;-33
2023/04/03 06:11:22;;;;;;;5.93;1.90;;;11.50;89.20;;;;;;4588674;19;20354;-31
2023/04/03 06:12:53;;;;;;;4.82;2.35;;;11.40;89.10;;;;;;4589844;19;20439;-32
2023/04/03 06:14:25;;;;;;;5.50;1.52;;;11.20;89.30;;;;;;4590590;19;20015;-31
2023/04/03 06:15:57;;;;;;;4.03;1.70;;;11.20;89.20;;;;;;4589873;19;20348;-31
2023/04/03 06:17:29;;;;;;;3.80;1.88;;;11.30;88.70;;;;;;4589884;19;20026;-31
2023/04/03 06:19:01;;;;;;;4.97;1.77;;;11.30;88.30;;;;;;4589928;19;20486;-31
2023/04/03 06:20:32;;;;;;;7.68;1.85;;;11.30;88.70;;;;;;4590903;19;20460;-34
2023/04/03 06:22:03;;;;;;;4.93;2.10;;;11.30;89.40;;;;;;4589880;19;20011;-32
2023/04/03 06:23:34;;;;;;;4.38;1.80;;;11.20;89.10;;;;;;4589038;19;20016;-31
2023/04/03 06:25:06;;;;;;;4.22;1.73;;;11.20;89.60;;;;;;4591947;19;20493;-32
2023/04/03 06:26:37;;;;;;;3.90;1.42;;;11.20;88.90;;;;;;4589299;19;20480;-31
2023/04/03 06:28:10;;;;;;;5.43;2.03;;;11.30;88.40;;;;;;4589807;19;20041;-31
2023/04/03 06:29:41;;;;;;;6.37;2.90;;;11.30;88.70;;;;;;4588626;19;20040;-31
2023/04/03 06:31:12;;;;;;;6.20;2.53;;;11.30;88.70;;;;;;4590189;19;20429;-31
2023/04/03 06:32:43;;;;;;;3.53;1.98;;;11.30;88.50;;;;;;4588997;19;20022;-31
2023/04/03 06:34:16;;;;;;;;;;;11.30;87.70;;;;;;4590426;19;20042;-31
2023/04/03 06:35:47;;;;;;;4.93;1.63;;;11.20;88.00;;;;;;4589413;19;19978;-31
2023/04/03 06:37:20;;;;;;;4.50;2.20;;;11.20;88.10;;;;;;4589625;19;20355;-32
2023/04/03 06:38:52;;;;;;;4.17;1.40;;;11.30;88.40;;;;;;4588684;19;20032;-31
2023/04/03 06:40:24;;;;;;;6.45;1.95;;;11.20;87.60;;;;;;4588281;19;20564;-31
2023/04/03 06:41:56;;;;;;;6.13;1.83;;;11.30;88.10;;;;;;4589997;19;20010;-31
2023/04/03 06:43:27;;;;;;;4.03;1.63;;;11.40;88.30;;;;;;4589135;19;20509;-31
2023/04/03 06:44:59;;;;;;;3.55;1.55;;;11.40;87.10;;;;;;4591630;19;20479;-33
2023/04/03 06:46:30;;;;;;;4.07;1.35;;;11.30;86.10;;;;;;4589994;19;20021;-31
2023/04/03 06:48:02;;;;;;;3.22;1.40;;;11.30;86.00;;;;;;4590190;19;20005;-31
2023/04/03 06:49:33;;;;;;;4.55;1.60;;;11.30;85.90;;;;;;4588265;19;20337;-31
2023/04/03 06:51:05;;;;;;;5.67;1.50;;;11.30;85.20;;;;;;4587964;19;20022;-32
2023/04/03 06:52:36;;;;;;;4.53;1.50;;;11.20;85.70;;;;;;4588998;19;20445;-31
2023/04/03 06:54:08;;;;;;;;;;;11.30;85.90;;;;;;4590726;19;20010;-32
2023/04/03 06:55:39;;;;;;;6.23;1.80;;;11.30;86.40;;;;;;4589306;19;19915;-32
2023/04/03 06:57:11;;;;;;;4.72;1.92;;;11.30;86.20;;;;;;4589494;19;21061;-31
2023/04/03 06:58:42;;;;;;;3.95;1.70;;;11.40;86.40;;;;;;4589531;19;20019;-31
2023/04/03 07:00:14;;;;;;;;;;;11.30;85.50;;;;;;4590452;19;20338;-31
2023/04/03 07:01:45;;;;;;;5.00;1.65;;;11.30;86.10;;;;;;4588940;19;19922;-34
2023/04/03 07:03:16;;;;;;;4.65;1.50;;;11.30;84.80;;;;;;4586816;19;20018;-31
2023/04/03 07:04:48;;;;;;;5.28;1.98;;;11.30;85.40;;;;;;4591018;19;20020;-35
2023/04/03 07:06:19;;;;;;;3.67;1.80;;;11.30;85.50;;;;;;4589369;19;20052;-30
2023/04/03 07:07:51;;;;;;;3.92;1.17;;;11.20;84.60;;;;;;4588928;19;20002;-31
2023/04/03 07:09:23;;;;;;;4.30;2.03;;;11.20;84.10;;;;;;4587492;19;20021;-32
2023/04/03 07:10:54;;;;;;;3.67;1.63;;;11.20;84.20;;;;;;4588292;19;20457;-31
2023/04/03 07:12:25;;;;;;;4.05;1.75;;;11.20;83.90;;;;;;4588518;19;20011;-30
2023/04/03 07:13:57;;;;;;;;;;;11.20;83.10;;;;;;4589618;19;20011;-30
2023/04/03 07:15:28;;;;;;;4.68;1.85;;;11.20;83.60;;;;;;4589313;19;19919;-30
2023/04/03 07:16:59;;;;;;;6.38;1.48;;;11.10;83.10;;;;;;4592835;19;20015;-32
2023/04/03 07:18:32;;;;;;;3.78;1.40;;;11.10;82.90;;;;;;4593264;19;20010;-31
2023/04/03 07:20:04;;;;;;;3.07;1.53;;;11.00;82.40;;;;;;4592392;19;20467;-31
2023/04/03 07:21:37;;;;;;;3.53;1.20;;;10.90;82.90;;;;;;4592876;19;20437;-32
2023/04/03 07:23:10;;;;;;;3.72;1.90;;;11.00;82.10;;;;;;4593582;19;20428;-30
2023/04/03 07:24:41;;;;;;;4.57;1.60;;;10.80;82.10;;;;;;4594422;19;20018;-32
2023/04/03 07:26:14;;;;;;;3.60;1.40;;;10.70;81.40;;;;;;4593201;19;20799;-31
2023/04/03 07:27:45;;;;;;;4.50;1.43;;;10.80;81.50;;;;;;4593372;19;20078;-33
2023/04/03 07:29:17;;;;;;;4.63;1.50;;;10.90;82.90;;;;;;4593188;19;20474;-30
2023/04/03 07:30:51;;;;;;;;;;;10.90;82.50;;;;;;4594170;19;20023;-33
2023/04/03 07:32:22;;;;;;;6.10;1.90;;;11.00;83.10;;;;;;4593366;19;19929;-34
2023/04/03 07:33:53;;;;;;;4.65;2.25;;;11.10;82.80;;;;;;4593043;19;21025;-31
2023/04/03 07:35:24;;;;;;;6.93;1.52;;;11.00;81.80;;;;;;4592586;19;20471;-31
2023/04/03 07:36:56;;;;;;;6.22;1.90;;;11.00;81.70;;;;;;4593216;19;20014;-32
2023/04/03 07:38:27;;;;;;;3.13;1.52;;;11.10;81.90;;;;;;4592942;19;20015;-33
2023/04/03 07:40:01;;;;;;;3.45;1.50;;;11.00;81.00;;;;;;4593551;19;20339;-31
2023/04/03 07:41:33;;;;;;;4.03;1.30;;;11.00;81.10;;;;;;4592526;19;20026;-31
2023/04/03 07:43:05;;;;;;;4.28;1.35;;;10.90;79.90;;;;;;4592988;19;20850;-32
2023/04/03 07:44:37;;;;;;;3.80;1.47;;;11.00;80.90;;;;;;4594077;19;20017;-32
2023/04/03 07:46:09;;;;;;;2.78;1.25;;;11.10;80.40;;;;;;4593503;19;20441;-31
2023/04/03 07:47:40;;;;;;;2.92;1.58;;;11.10;81.00;;;;;;4592797;19;20007;-32
2023/04/03 07:49:12;;;;;;;2.95;1.33;;;11.10;81.30;;;;;;4592567;19;20010;-31
2023/04/03 07:50:44;;;;;;;3.77;1.30;;;11.20;80.90;;;;;;4591113;19;20014;-30
2023/04/03 07:52:15;;;;;;;4.45;1.40;;;11.20;80.40;;;;;;4591892;19;21052;-33
2023/04/03 07:53:46;;;;;;;4.95;1.77;;;11.30;81.00;;;;;;4591772;19;20022;-33
2023/04/03 07:55:19;;;;;;;4.13;1.40;;;11.30;80.80;;;;;;4595302;19;20010;-32
2023/04/03 07:56:50;;;;;;;2.93;1.27;;;11.30;79.80;;;;;;4592493;19;20357;-33
2023/04/03 07:58:22;;;;;;;5.20;1.50;;;11.30;79.70;;;;;;4592490;19;20444;-31
2023/04/03 07:59:53;;;;;;;2.38;1.27;;;11.30;79.80;;;;;;4592691;19;20479;-32
2023/04/03 08:01:24;;;;;;;5.45;1.38;;;11.20;79.40;;;;;;4592799;19;20035;-31
2023/04/03 08:02:55;;;;;;;3.75;1.30;;;11.00;79.60;;;;;;4592579;19;20010;-30